createdAt,value
2016-02-05T00:00:04.508Z,81.63
2016-02-05T00:01:04.512Z,81.34
2016-02-05T00:02:04.499Z,81.63
2016-02-05T00:03:04.502Z,81.15
2016-02-05T00:04:04.597Z,80.96
2016-02-05T00:05:04.492Z,80.96
2016-02-05T00:06:04.478Z,81.34
2016-02-05T00:07:04.466Z,81.15
2016-02-05T00:08:04.484Z,80.87
2016-02-05T00:09:04.471Z,81.06
2016-02-05T00:10:04.459Z,81.15
2016-02-05T00:11:04.462Z,81.82
2016-02-05T00:12:04.449Z,80.87
2016-02-05T00:13:04.452Z,81.06
2016-02-05T00:14:04.439Z,81.15
2016-02-05T00:15:04.446Z,81.34
2016-02-05T00:16:04.433Z,80.96
2016-02-05T00:17:04.452Z,80.96
2016-02-05T00:18:04.409Z,81.44
2016-02-05T00:19:04.411Z,81.44
2016-02-05T00:20:04.414Z,80.96
2016-02-05T00:21:04.417Z,80.58
2016-02-05T00:22:04.388Z,80.96
2016-02-05T00:23:04.392Z,81.15
2016-02-05T00:24:04.394Z,81.44
2016-02-05T00:25:04.370Z,81.25
2016-02-05T00:26:04.373Z,80.49
2016-02-05T00:27:04.376Z,80.11
2016-02-05T00:28:04.363Z,80.11
2016-02-05T00:29:04.350Z,80.49
2016-02-05T00:30:04.374Z,80.77
2016-02-05T00:31:04.346Z,80.3
2016-02-05T00:32:04.353Z,80.58
2016-02-05T00:33:04.341Z,80.4
2016-02-05T00:34:04.329Z,80.58
2016-02-05T00:35:04.331Z,80.4
2016-02-05T00:36:04.562Z,80.3
2016-02-05T00:37:04.314Z,80.11
2016-02-05T00:38:04.317Z,80.68
2016-02-05T00:39:04.320Z,80.77
2016-02-05T00:40:04.308Z,80.68
2016-02-05T00:41:04.294Z,80.49
2016-02-05T00:42:04.297Z,80.3
2016-02-05T00:43:04.289Z,80.58
2016-02-05T00:44:04.293Z,80.68
2016-02-05T00:45:04.281Z,80.21
2016-02-05T00:46:04.267Z,80.77
2016-02-05T00:47:04.270Z,80.77
2016-02-05T00:48:04.273Z,80.21
2016-02-05T00:49:04.260Z,80.4
2016-02-05T00:50:04.247Z,80.21
2016-02-05T00:51:04.250Z,80.3
2016-02-05T00:52:04.237Z,80.58
2016-02-05T00:53:04.240Z,80.11
2016-02-05T00:54:04.242Z,80.3
2016-02-05T00:55:04.231Z,80.11
2016-02-05T00:56:04.235Z,80.3
2016-02-05T00:57:04.223Z,80.3
2016-02-05T00:58:04.213Z,80.21
2016-02-05T00:59:04.200Z,80.21
2016-02-05T01:00:04.203Z,80.49
2016-02-05T01:01:04.206Z,80.3
2016-02-05T01:02:04.193Z,80.4
2016-02-05T01:03:04.195Z,80.68
2016-02-05T01:04:04.182Z,80.49
2016-02-05T01:05:04.185Z,80.4
2016-02-05T01:06:04.188Z,80.21
2016-02-05T01:07:04.159Z,80.21
2016-02-05T01:08:04.163Z,80.49
2016-02-05T01:09:04.166Z,80.4
2016-02-05T01:10:04.137Z,80.21
2016-02-05T01:11:04.140Z,80.4
2016-02-05T01:12:04.142Z,80.3
2016-02-05T01:13:04.131Z,80.49
2016-02-05T01:14:04.133Z,80.3
2016-02-05T01:15:04.120Z,80.4
2016-02-05T01:16:04.122Z,80.77
2016-02-05T01:17:04.110Z,80.58
2016-02-05T01:18:04.101Z,80.87
2016-02-05T01:19:04.088Z,80.58
2016-02-05T01:20:04.106Z,80.58
2016-02-05T01:21:04.077Z,80.77
2016-02-05T01:22:04.081Z,80.58
2016-02-05T01:23:04.067Z,80.3
2016-02-05T01:24:04.070Z,80.49
2016-02-05T01:25:04.057Z,80.17
2016-02-05T01:26:04.076Z,80.4
2016-02-05T01:27:04.047Z,79.98
2016-02-05T01:28:04.070Z,80.26
2016-02-05T01:29:04.041Z,80.45
2016-02-05T01:30:04.029Z,80.4
2016-02-05T01:31:04.032Z,80.49
2016-02-05T01:32:04.018Z,80.26
2016-02-05T01:33:04.021Z,80.26
2016-02-05T01:34:04.008Z,80.11
2016-02-05T01:35:04.015Z,80.49
2016-02-05T01:36:04.002Z,80.21
2016-02-05T01:37:03.989Z,80.26
2016-02-05T01:38:03.976Z,80.17
2016-02-05T01:39:03.979Z,80.11
2016-02-05T01:40:03.981Z,80.45
2016-02-05T01:41:03.969Z,80.36
2016-02-05T01:42:03.971Z,80.4
2016-02-05T01:43:03.958Z,80.17
2016-02-05T01:44:03.946Z,80.74
2016-02-05T01:45:03.948Z,80.36
2016-02-05T01:46:03.935Z,80.26
2016-02-05T01:47:03.937Z,80.36
2016-02-05T01:48:03.926Z,81.25
2016-02-05T01:49:03.960Z,80.87
2016-02-05T01:50:03.916Z,80.36
2016-02-05T01:51:03.918Z,80.17
2016-02-05T01:52:03.921Z,80.36
2016-02-05T01:53:03.896Z,80.45
2016-02-05T01:54:03.898Z,80.17
2016-02-05T01:55:03.889Z,80.45
2016-02-05T01:56:03.892Z,80.74
2016-02-05T01:57:03.879Z,80.77
2016-02-05T01:58:03.882Z,80.58
2016-02-05T01:59:03.861Z,80.77
2016-02-05T02:00:03.864Z,80.02
2016-02-05T02:01:03.867Z,80.3
2016-02-05T02:02:03.853Z,80.68
2016-02-05T02:03:03.840Z,80.49
2016-02-05T02:04:03.848Z,80.3
2016-02-05T02:05:03.836Z,80.49
2016-02-05T02:06:03.822Z,80.58
2016-02-05T02:07:03.840Z,80.49
2016-02-05T02:08:03.812Z,79.83
2016-02-05T02:09:03.815Z,80.49
2016-02-05T02:10:03.818Z,80.49
2016-02-05T02:11:03.806Z,80.11
2016-02-05T02:12:03.792Z,79.93
2016-02-05T02:13:03.796Z,80.02
2016-02-05T02:14:03.782Z,80.21
2016-02-05T02:15:03.785Z,80.11
2016-02-05T02:16:03.804Z,80.11
2016-02-05T02:17:03.759Z,79.93
2016-02-05T02:18:03.762Z,80.02
2016-02-05T02:19:03.765Z,79.83
2016-02-05T02:20:03.753Z,80.21
2016-02-05T02:21:03.741Z,80.11
2016-02-05T02:22:03.759Z,80.02
2016-02-05T02:23:03.747Z,79.93
2016-02-05T02:24:03.719Z,80.11
2016-02-05T02:25:03.721Z,80.11
2016-02-05T02:26:03.708Z,80.11
2016-02-05T02:27:03.711Z,80.11
2016-02-05T02:28:03.700Z,80.11
2016-02-05T02:29:03.702Z,80.11
2016-02-05T02:30:03.705Z,80.02
2016-02-05T02:31:03.682Z,80.11
2016-02-05T02:32:03.685Z,79.74
2016-02-05T02:33:03.687Z,79.93
2016-02-05T02:34:03.675Z,80.02
2016-02-05T02:35:03.662Z,79.93
2016-02-05T02:36:03.680Z,80.02
2016-02-05T02:37:03.651Z,79.93
2016-02-05T02:38:03.654Z,79.74
2016-02-05T02:39:03.641Z,79.74
2016-02-05T02:40:03.644Z,80.49
2016-02-05T02:41:03.632Z,80.4
2016-02-05T02:42:03.634Z,80.4
2016-02-05T02:43:03.638Z,80.49
2016-02-05T02:44:03.614Z,80.11
2016-02-05T02:45:03.460Z,80.49
2016-02-05T02:46:03.618Z,80.3
2016-02-05T02:47:03.590Z,80.02
2016-02-05T02:48:03.593Z,80.11
2016-02-05T02:49:03.595Z,79.93
2016-02-05T02:50:03.582Z,80.02
2016-02-05T02:51:03.585Z,79.93
2016-02-05T02:52:03.573Z,80.11
2016-02-05T02:53:03.562Z,79.93
2016-02-05T02:54:03.565Z,80.11
2016-02-05T02:55:03.567Z,80.3
2016-02-05T02:56:03.555Z,79.93
2016-02-05T02:57:03.558Z,79.83
2016-02-05T02:58:03.546Z,79.83
2016-02-05T02:59:03.533Z,80.4
2016-02-05T03:00:03.536Z,79.93
2016-02-05T03:01:03.527Z,79.93
2016-02-05T03:02:03.513Z,80.4
2016-02-05T03:03:03.516Z,79.74
2016-02-05T03:04:03.519Z,80.4
2016-02-05T03:05:03.506Z,80.58
2016-02-05T03:06:03.509Z,80.58
2016-02-05T03:07:03.481Z,79.93
2016-02-05T03:08:03.483Z,79.74
2016-02-05T03:09:03.487Z,80.11
2016-02-05T03:10:03.489Z,79.83
2016-02-05T03:11:03.461Z,80.02
2016-02-05T03:12:03.478Z,80.11
2016-02-05T03:13:03.451Z,79.83
2016-02-05T03:14:03.442Z,80.11
2016-02-05T03:15:03.461Z,80.11
2016-02-05T03:16:03.450Z,79.83
2016-02-05T03:17:03.453Z,80.3
2016-02-05T03:18:03.441Z,79.83
2016-02-05T03:19:03.427Z,79.83
2016-02-05T03:20:03.417Z,79.93
2016-02-05T03:21:03.421Z,79.74
2016-02-05T03:22:03.409Z,79.93
2016-02-05T03:23:03.411Z,80.11
2016-02-05T03:24:03.398Z,80.11
2016-02-05T03:25:03.400Z,79.93
2016-02-05T03:26:03.404Z,79.83
2016-02-05T03:27:03.391Z,80.02
2016-02-05T03:28:03.394Z,79.93
2016-02-05T03:29:03.365Z,79.93
2016-02-05T03:30:03.368Z,79.93
2016-02-05T03:31:03.352Z,80.11
2016-02-05T03:32:03.355Z,79.93
2016-02-05T03:33:03.341Z,79.74
2016-02-05T03:34:03.343Z,80.02
2016-02-05T03:35:03.330Z,79.69
2016-02-05T03:36:03.333Z,79.74
2016-02-05T03:37:03.321Z,79.5
2016-02-05T03:38:03.325Z,79.41
2016-02-05T03:39:03.328Z,79.6
2016-02-05T03:40:03.330Z,79.6
2016-02-05T03:41:03.303Z,79.6
2016-02-05T03:42:03.305Z,80.07
2016-02-05T03:43:03.292Z,80.07
2016-02-05T03:44:03.279Z,79.41
2016-02-05T03:45:03.281Z,79.5
2016-02-05T03:46:03.271Z,79.41
2016-02-05T03:47:03.257Z,79.98
2016-02-05T03:48:03.261Z,79.41
2016-02-05T03:49:03.263Z,79.6
2016-02-05T03:50:03.250Z,79.41
2016-02-05T03:51:03.237Z,80.07
2016-02-05T03:52:03.241Z,80.07
2016-02-05T03:53:03.258Z,79.41
2016-02-05T03:54:03.229Z,79.5
2016-02-05T03:55:03.217Z,79.6
2016-02-05T03:56:03.218Z,79.6
2016-02-05T03:57:03.207Z,79.6
2016-02-05T03:58:03.197Z,79.6
2016-02-05T03:59:03.184Z,79.6
2016-02-05T04:00:03.177Z,79.69
2016-02-05T04:01:03.164Z,79.88
2016-02-05T04:02:03.167Z,79.6
2016-02-05T04:03:03.154Z,79.5
2016-02-05T04:04:03.156Z,79.41
2016-02-05T04:05:03.160Z,80.07
2016-02-05T04:06:03.150Z,79.98
2016-02-05T04:07:03.137Z,79.88
2016-02-05T04:08:03.139Z,79.98
2016-02-05T04:09:03.127Z,79.88
2016-02-05T04:10:03.130Z,80.26
2016-02-05T04:11:03.100Z,79.88
2016-02-05T04:12:03.103Z,79.88
2016-02-05T04:13:03.106Z,79.69
2016-02-05T04:14:03.093Z,79.98
2016-02-05T04:15:03.080Z,79.88
2016-02-05T04:16:03.099Z,79.69
2016-02-05T04:17:03.069Z,79.79
2016-02-05T04:18:03.073Z,80.17
2016-02-05T04:19:03.075Z,79.88
2016-02-05T04:20:03.048Z,80.45
2016-02-05T04:21:03.050Z,80.07
2016-02-05T04:22:03.053Z,80.36
2016-02-05T04:23:03.030Z,80.26
2016-02-05T04:24:03.034Z,79.88
2016-02-05T04:25:03.020Z,80.07
2016-02-05T04:26:03.022Z,80.07
2016-02-05T04:27:03.010Z,79.79
2016-02-05T04:28:03.012Z,79.88
2016-02-05T04:29:03.000Z,79.88
2016-02-05T04:30:02.984Z,79.88
2016-02-05T04:31:02.987Z,79.98
2016-02-05T04:32:02.990Z,79.88
2016-02-05T04:33:02.971Z,80.17
2016-02-05T04:34:02.966Z,80.07
2016-02-05T04:35:02.960Z,80.17
2016-02-05T04:36:02.923Z,79.79
2016-02-05T04:37:02.934Z,79.5
2016-02-05T04:38:02.980Z,79.5
2016-02-05T04:39:03.089Z,79.6
2016-02-05T04:40:02.964Z,79.69
2016-02-05T04:41:03.012Z,79.64
2016-02-05T04:42:03.059Z,79.6
2016-02-05T04:43:03.029Z,79.64
2016-02-05T04:44:02.968Z,79.79
2016-02-05T04:45:02.922Z,79.93
2016-02-05T04:46:02.862Z,79.83
2016-02-05T04:47:02.894Z,79.45
2016-02-05T04:48:03.006Z,79.07
2016-02-05T04:49:02.946Z,79.07
2016-02-05T04:50:02.917Z,79.36
2016-02-05T04:51:02.999Z,79.26
2016-02-05T04:52:02.829Z,79.07
2016-02-05T04:53:02.894Z,79.07
2016-02-05T04:54:02.960Z,79.36
2016-02-05T04:55:03.024Z,79.07
2016-02-05T04:56:02.922Z,79.45
2016-02-05T04:57:02.722Z,79.26
2016-02-05T04:58:02.849Z,79.26
2016-02-05T04:59:03.025Z,79.26
2016-02-05T05:00:03.045Z,78.79
2016-02-05T05:01:02.969Z,78.98
2016-02-05T05:02:02.832Z,78.88
2016-02-05T05:03:02.959Z,78.79
2016-02-05T05:04:02.903Z,78.59
2016-02-05T05:05:03.249Z,78.88
2016-02-05T05:06:02.813Z,78.79
2016-02-05T05:07:02.785Z,78.88
2016-02-05T05:08:02.898Z,78.5
2016-02-05T05:09:02.807Z,78.41
2016-02-05T05:10:02.871Z,78.59
2016-02-05T05:11:02.812Z,78.31
2016-02-05T05:12:02.815Z,78.69
2016-02-05T05:13:02.818Z,78.69
2016-02-05T05:14:02.866Z,78.69
2016-02-05T05:15:02.791Z,78.59
2016-02-05T05:16:02.794Z,78.41
2016-02-05T05:17:02.797Z,78.59
2016-02-05T05:18:02.847Z,78.59
2016-02-05T05:19:02.865Z,78.5
2016-02-05T05:20:02.790Z,77.84
2016-02-05T05:21:02.730Z,78.31
2016-02-05T05:22:02.764Z,77.94
2016-02-05T05:23:02.705Z,77.46
2016-02-05T05:24:02.708Z,78.41
2016-02-05T05:25:02.680Z,77.94
2016-02-05T05:26:02.870Z,77.65
2016-02-05T05:27:02.732Z,77.84
2016-02-05T05:28:02.656Z,77.56
2016-02-05T05:29:02.726Z,77.75
2016-02-05T05:30:02.653Z,78.13
2016-02-05T05:31:02.734Z,78.03
2016-02-05T05:32:02.721Z,78.5
2016-02-05T05:33:02.645Z,78.5
2016-02-05T05:34:02.789Z,78.31
2016-02-05T05:35:02.104Z,77.94
2016-02-05T05:36:02.767Z,78.31
2016-02-05T05:37:02.863Z,78.22
2016-02-05T05:38:02.710Z,78.31
2016-02-05T05:39:02.697Z,78.31
2016-02-05T05:40:02.685Z,77.65
2016-02-05T05:41:02.671Z,77.94
2016-02-05T05:42:02.657Z,77.84
2016-02-05T05:43:02.724Z,78.22
2016-02-05T05:44:02.571Z,77.94
2016-02-05T05:45:02.589Z,78.22
2016-02-05T05:46:02.638Z,78.03
2016-02-05T05:47:02.563Z,78.22
2016-02-05T05:48:02.660Z,78.41
2016-02-05T05:49:02.569Z,78.22
2016-02-05T05:50:02.744Z,78.13
2016-02-05T05:51:02.606Z,78.13
2016-02-05T05:52:02.483Z,78.03
2016-02-05T05:53:02.534Z,78.41
2016-02-05T05:54:02.708Z,78.31
2016-02-05T05:55:02.539Z,77.84
2016-02-05T05:56:02.650Z,77.94
2016-02-05T05:57:02.637Z,77.94
2016-02-05T05:58:02.516Z,77.94
2016-02-05T05:59:02.612Z,77.94
2016-02-05T06:00:02.522Z,78.03
2016-02-05T06:01:02.555Z,78.22
2016-02-05T06:02:02.731Z,78.13
2016-02-05T06:03:02.545Z,78.22
2016-02-05T06:04:02.548Z,78.22
2016-02-05T06:05:02.489Z,78.31
2016-02-05T06:06:02.553Z,78.13
2016-02-05T06:07:02.478Z,78.22
2016-02-05T06:08:02.528Z,77.84
2016-02-05T06:09:02.595Z,78.41
2016-02-05T06:10:02.456Z,78.13
2016-02-05T06:11:02.568Z,78.13
2016-02-05T06:12:02.383Z,78.13
2016-02-05T06:13:02.636Z,78.22
2016-02-05T06:14:02.545Z,78.41
2016-02-05T06:15:02.423Z,78.03
2016-02-05T06:16:02.519Z,78.41
2016-02-05T06:17:02.491Z,78.22
2016-02-05T06:18:02.510Z,78.41
2016-02-05T06:19:02.405Z,78.41
2016-02-05T06:20:02.469Z,78.41
2016-02-05T06:21:02.472Z,78.13
2016-02-05T06:22:02.447Z,78.41
2016-02-05T06:23:02.466Z,78.22
2016-02-05T06:24:02.390Z,78.13
2016-02-05T06:25:02.486Z,78.22
2016-02-05T06:26:02.489Z,78.03
2016-02-05T06:27:02.507Z,78.31
2016-02-05T06:28:02.495Z,78.03
2016-02-05T06:29:02.375Z,78.13
2016-02-05T06:30:02.465Z,78.03
2016-02-05T06:31:02.514Z,77.94
2016-02-05T06:32:02.392Z,78.13
2016-02-05T06:33:02.286Z,78.41
2016-02-05T06:34:02.554Z,78.03
2016-02-05T06:35:02.650Z,78.41
2016-02-05T06:36:02.403Z,78.31
2016-02-05T06:37:02.250Z,78.41
2016-02-05T06:38:02.502Z,78.22
2016-02-05T06:39:02.302Z,78.31
2016-02-05T06:40:02.430Z,78.22
2016-02-05T06:41:02.276Z,78.88
2016-02-05T06:42:02.498Z,78.41
2016-02-05T06:43:02.392Z,78.41
2016-02-05T06:44:02.441Z,78.31
2016-02-05T06:45:02.272Z,78.88
2016-02-05T06:46:02.368Z,78.41
2016-02-05T06:47:02.356Z,78.41
2016-02-05T06:48:02.280Z,78.59
2016-02-05T06:49:02.344Z,78.41
2016-02-05T06:50:02.347Z,78.41
2016-02-05T06:51:02.195Z,78.59
2016-02-05T06:52:02.259Z,78.79
2016-02-05T06:53:02.230Z,78.41
2016-02-05T06:54:02.219Z,78.59
2016-02-05T06:55:02.205Z,78.69
2016-02-05T06:56:02.178Z,78.69
2016-02-05T06:57:02.289Z,78.59
2016-02-05T06:58:02.292Z,78.69
2016-02-05T06:59:02.278Z,78.5
2016-02-05T07:00:02.264Z,78.59
2016-02-05T07:01:02.328Z,78.22
2016-02-05T07:02:02.253Z,78.13
2016-02-05T07:03:02.130Z,78.41
2016-02-05T07:04:02.400Z,78.5
2016-02-05T07:05:02.168Z,78.41
2016-02-05T07:06:02.171Z,78.31
2016-02-05T07:07:02.236Z,78.22
2016-02-05T07:08:02.223Z,78.5
2016-02-05T07:09:02.148Z,78.31
2016-02-05T07:10:02.198Z,78.13
2016-02-05T07:11:02.092Z,78.03
2016-02-05T07:12:02.078Z,77.94
2016-02-05T07:13:02.223Z,78.41
2016-02-05T07:14:02.209Z,78.03
2016-02-05T07:15:02.088Z,78.13
2016-02-05T07:16:01.371Z,78.26
2016-02-05T07:17:02.187Z,78.13
2016-02-05T07:18:02.174Z,78.35
2016-02-05T07:19:02.193Z,77.97
2016-02-05T07:20:02.039Z,78.31
2016-02-05T07:21:02.167Z,78.45
2016-02-05T07:22:02.208Z,78.35
2016-02-05T07:23:02.163Z,78.07
2016-02-05T07:24:02.072Z,77.97
2016-02-05T07:25:02.044Z,78.26
2016-02-05T07:26:02.109Z,78.26
2016-02-05T07:27:02.409Z,78.07
2016-02-05T07:28:02.193Z,77.97
2016-02-05T07:29:02.118Z,77.69
2016-02-05T07:30:02.060Z,77.78
2016-02-05T07:31:02.235Z,78.35
2016-02-05T07:32:02.144Z,78.35
2016-02-05T07:33:02.161Z,78.16
2016-02-05T07:34:02.102Z,78.16
2016-02-05T07:35:02.107Z,78.16
2016-02-05T07:36:02.110Z,78.35
2016-02-05T07:37:02.127Z,78.16
2016-02-05T07:38:02.084Z,78.16
2016-02-05T07:39:02.086Z,77.69
2016-02-05T07:40:01.996Z,77.97
2016-02-05T07:41:02.029Z,78.35
2016-02-05T07:42:02.079Z,78.35
2016-02-05T07:43:02.050Z,78.16
2016-02-05T07:44:02.005Z,78.35
2016-02-05T07:45:02.009Z,78.16
2016-02-05T07:46:02.090Z,78.35
2016-02-05T07:47:02.108Z,78.16
2016-02-05T07:48:02.000Z,78.26
2016-02-05T07:49:02.034Z,78.54
2016-02-05T07:50:02.037Z,78.45
2016-02-05T07:51:01.977Z,78.26
2016-02-05T07:52:02.011Z,78.45
2016-02-05T07:53:01.967Z,78.45
2016-02-05T07:54:01.891Z,78.45
2016-02-05T07:55:01.882Z,78.07
2016-02-05T07:56:01.899Z,78.07
2016-02-05T07:57:01.887Z,78.45
2016-02-05T07:58:01.873Z,78.07
2016-02-05T07:59:02.001Z,78.35
2016-02-05T08:00:02.004Z,78.16
2016-02-05T08:01:01.981Z,77.97
2016-02-05T08:02:02.236Z,78.07
2016-02-05T08:03:02.036Z,77.5
2016-02-05T08:04:01.977Z,77.59
2016-02-05T08:05:01.917Z,77.5
2016-02-05T08:06:01.919Z,77.4
2016-02-05T08:07:01.984Z,77.59
2016-02-05T08:08:01.942Z,77.78
2016-02-05T08:09:01.881Z,77.97
2016-02-05T08:10:01.931Z,77.78
2016-02-05T08:11:01.871Z,77.88
2016-02-05T08:12:01.874Z,77.78
2016-02-05T08:13:01.924Z,77.88
2016-02-05T08:14:01.988Z,77.88
2016-02-05T08:15:01.866Z,77.88
2016-02-05T08:16:01.869Z,77.69
2016-02-05T08:17:01.996Z,77.59
2016-02-05T08:18:01.905Z,77.5
2016-02-05T08:19:01.955Z,77.59
2016-02-05T08:20:01.960Z,77.97
2016-02-05T08:21:01.979Z,77.78
2016-02-05T08:22:01.952Z,77.69
2016-02-05T08:23:01.813Z,77.5
2016-02-05T08:24:01.956Z,77.5
2016-02-05T08:25:01.927Z,77.5
2016-02-05T08:26:01.883Z,77.4
2016-02-05T08:27:01.043Z,77.64
2016-02-05T08:28:01.812Z,76.65
2016-02-05T08:29:01.956Z,77.45
2016-02-05T08:30:01.912Z,76.97
2016-02-05T08:31:01.854Z,76.97
2016-02-05T08:32:01.935Z,77.25
2016-02-05T08:33:02.047Z,76.97
2016-02-05T08:34:01.799Z,77.16
2016-02-05T08:35:01.896Z,77.16
2016-02-05T08:36:01.836Z,76.97
2016-02-05T08:37:01.901Z,76.5
2016-02-05T08:38:01.904Z,76.68
2016-02-05T08:39:01.876Z,76.21
2016-02-05T08:40:01.894Z,76.59
2016-02-05T08:41:01.991Z,76.59
2016-02-05T08:42:01.822Z,76.21
2016-02-05T08:43:01.777Z,76.21
2016-02-05T08:44:01.796Z,76.12
2016-02-05T08:45:01.846Z,76.31
2016-02-05T08:46:01.802Z,76.03
2016-02-05T08:47:01.741Z,76.31
2016-02-05T08:48:01.824Z,76.31
2016-02-05T08:49:01.718Z,76.21
2016-02-05T08:50:01.846Z,76.21
2016-02-05T08:51:01.770Z,76.12
2016-02-05T08:52:01.773Z,76.12
2016-02-05T08:53:01.792Z,76.12
2016-02-05T08:54:01.733Z,75.64
2016-02-05T08:55:01.689Z,75.45
2016-02-05T08:56:01.755Z,75.49
2016-02-05T08:57:01.757Z,75.59
2016-02-05T08:58:01.697Z,75.4
2016-02-05T08:59:01.730Z,75.68
2016-02-05T09:00:01.718Z,75.87
2016-02-05T09:01:01.818Z,75.11
2016-02-05T09:02:01.728Z,75.21
2016-02-05T09:03:01.684Z,75.21
2016-02-05T09:04:01.670Z,75.36
2016-02-05T09:05:01.736Z,75.11
2016-02-05T09:06:01.726Z,75.21
2016-02-05T09:07:01.823Z,75.31
2016-02-05T09:08:01.715Z,75.59
2016-02-05T09:09:01.749Z,75.31
2016-02-05T09:10:01.659Z,75.31
2016-02-05T09:11:01.676Z,75.68
2016-02-05T09:12:01.663Z,75.68
2016-02-05T09:13:01.653Z,75.31
2016-02-05T09:14:01.814Z,75.59
2016-02-05T09:15:01.707Z,74.83
2016-02-05T09:16:01.665Z,74.73
2016-02-05T09:17:01.685Z,75.02
2016-02-05T09:18:01.671Z,74.83
2016-02-05T09:19:01.705Z,74.54
2016-02-05T09:20:01.574Z,74.45
2016-02-05T09:21:01.609Z,74.07
2016-02-05T09:22:01.690Z,74.35
2016-02-05T09:23:01.645Z,74.54
2016-02-05T09:24:01.664Z,74.54
2016-02-05T09:25:01.651Z,74.54
2016-02-05T09:26:01.829Z,74.73
2016-02-05T09:27:01.722Z,74.26
2016-02-05T09:28:01.694Z,74.16
2016-02-05T09:29:01.634Z,73.97
2016-02-05T09:30:01.637Z,74.16
2016-02-05T09:31:01.951Z,73.31
2016-02-05T09:32:01.626Z,73.5
2016-02-05T09:33:01.598Z,73.97
2016-02-05T09:34:01.616Z,73.6
2016-02-05T09:35:02.446Z,73.88
2016-02-05T09:36:01.919Z,73.88
2016-02-05T09:37:01.609Z,73.44
2016-02-05T09:38:01.643Z,73.6
2016-02-05T09:39:01.754Z,73.69
2016-02-05T09:40:01.710Z,73.35
2016-02-05T09:41:01.573Z,73.44
2016-02-05T09:42:01.622Z,73.54
2016-02-05T09:43:01.593Z,73.35
2016-02-05T09:44:02.330Z,72.97
2016-02-05T09:45:01.614Z,72.88
2016-02-05T09:46:02.259Z,72.68
2016-02-05T09:47:01.684Z,72.78
2016-02-05T09:48:01.654Z,72.88
2016-02-05T09:49:01.692Z,72.68
2016-02-05T09:50:01.585Z,72.97
2016-02-05T09:51:01.665Z,73.16
2016-02-05T09:52:01.606Z,72.11
2016-02-05T09:53:01.515Z,72.21
2016-02-05T09:54:01.628Z,72.11
2016-02-05T09:55:01.600Z,72.3
2016-02-05T09:56:01.711Z,72.02
2016-02-05T09:57:01.668Z,71.92
2016-02-05T09:58:01.561Z,71.48
2016-02-05T09:59:01.628Z,71.48
2016-02-05T10:00:01.598Z,71.48
2016-02-05T10:01:01.570Z,71.77
2016-02-05T10:02:01.573Z,71.48
2016-02-05T10:03:01.591Z,71.2
2016-02-05T10:04:01.579Z,71.11
2016-02-05T10:05:01.535Z,71.3
2016-02-05T10:06:01.648Z,71.11
2016-02-05T10:07:01.572Z,71.3
2016-02-05T10:08:01.560Z,71.58
2016-02-05T10:09:01.577Z,71.2
2016-02-05T10:10:01.549Z,71.11
2016-02-05T10:11:01.552Z,71.39
2016-02-05T10:12:01.585Z,71.67
2016-02-05T10:13:01.526Z,71.2
2016-02-05T10:14:01.545Z,71.3
2016-02-05T10:15:01.515Z,71.2
2016-02-05T10:16:01.583Z,71.2
2016-02-05T10:17:01.489Z,70.63
2016-02-05T10:18:01.475Z,70.63
2016-02-05T10:19:01.654Z,71.01
2016-02-05T10:20:00.938Z,70.25
2016-02-05T10:21:01.784Z,70.44
2016-02-05T10:22:01.584Z,70.12
2016-02-05T10:23:01.634Z,70.78
2016-02-05T10:24:01.606Z,70.63
2016-02-05T10:25:01.701Z,70.44
2016-02-05T10:26:01.595Z,70.59
2016-02-05T10:27:01.566Z,70.5
2016-02-05T10:28:01.601Z,70.98
2016-02-05T10:29:01.541Z,71.26
2016-02-05T10:30:01.747Z,71.17
2016-02-05T10:31:01.561Z,71.07
2016-02-05T10:32:01.627Z,70.92
2016-02-05T10:33:01.630Z,70.5
2016-02-05T10:34:01.620Z,70.31
2016-02-05T10:35:01.591Z,70.98
2016-02-05T10:36:01.781Z,70.31
2016-02-05T10:37:01.331Z,70.4
2016-02-05T10:38:01.522Z,70.31
2016-02-05T10:39:01.682Z,70.69
2016-02-05T10:40:01.575Z,70.88
2016-02-05T10:41:01.688Z,71.07
2016-02-05T10:42:01.737Z,70.88
2016-02-05T10:43:01.583Z,70.12
2016-02-05T10:44:01.430Z,70.88
2016-02-05T10:45:01.432Z,70.5
2016-02-05T10:46:01.451Z,71.26
2016-02-05T10:47:01.438Z,70.78
2016-02-05T10:48:01.456Z,70.78
2016-02-05T10:49:01.443Z,70.5
2016-02-05T10:50:01.446Z,70.5
2016-02-05T10:51:01.417Z,70.5
2016-02-05T10:52:01.436Z,70.03
2016-02-05T10:53:01.423Z,70.44
2016-02-05T10:54:01.425Z,69.87
2016-02-05T10:55:01.428Z,69.68
2016-02-05T10:56:01.431Z,70.15
2016-02-05T10:57:01.418Z,70.54
2016-02-05T10:58:01.420Z,70.25
2016-02-05T10:59:01.409Z,69.59
2016-02-05T11:00:01.427Z,69.3
2016-02-05T11:01:01.429Z,68.83
2016-02-05T11:02:01.401Z,69.11
2016-02-05T11:03:01.406Z,68.92
2016-02-05T11:04:01.455Z,68.92
2016-02-05T11:05:01.442Z,68.73
2016-02-05T11:06:01.430Z,69.3
2016-02-05T11:07:01.416Z,68.86
2016-02-05T11:08:01.403Z,68.39
2016-02-05T11:09:01.405Z,67.44
2016-02-05T11:10:01.408Z,67.44
2016-02-05T11:11:01.443Z,67.82
2016-02-05T11:12:01.415Z,68.19
2016-02-05T11:13:01.402Z,67.06
2016-02-05T11:14:01.420Z,67.44
2016-02-05T11:15:01.408Z,67.63
2016-02-05T11:16:01.410Z,66.96
2016-02-05T11:17:01.415Z,67.15
2016-02-05T11:18:01.417Z,67.44
2016-02-05T11:19:01.625Z,66.11
2016-02-05T11:20:01.456Z,65.92
2016-02-05T11:21:01.567Z,65.44
2016-02-05T11:22:01.602Z,65.63
2016-02-05T11:23:01.650Z,65.92
2016-02-05T11:24:02.764Z,65.25
2016-02-05T11:25:01.720Z,64.4
2016-02-05T11:26:01.598Z,64.87
2016-02-05T11:27:01.584Z,65.06
2016-02-05T11:28:01.540Z,64.87
2016-02-05T11:29:01.450Z,65.54
2016-02-05T11:30:01.592Z,65.82
2016-02-05T11:31:01.517Z,65.92
2016-02-05T11:32:00.835Z,65.25
2016-02-05T11:33:01.478Z,65.92
2016-02-05T11:34:01.496Z,66.2
2016-02-05T11:35:01.468Z,65.25
2016-02-05T11:36:04.251Z,65.54
2016-02-05T11:38:04.589Z,64.87
2016-02-05T11:38:51.826Z,65.06
2016-02-05T11:39:51.815Z,65.16
2016-02-05T11:40:51.817Z,63.83
2016-02-05T11:41:51.898Z,64.21
2016-02-05T11:42:51.822Z,64.3
2016-02-05T11:43:51.825Z,63.83
2016-02-05T11:44:51.828Z,63.26
2016-02-05T11:45:51.815Z,64.11
2016-02-05T11:46:51.958Z,63.54
2016-02-05T11:47:51.883Z,63.26
2016-02-05T11:48:51.978Z,63.83
2016-02-05T11:49:51.888Z,63.35
2016-02-05T11:50:52.234Z,63.26
2016-02-05T11:51:52.034Z,63.45
2016-02-05T11:52:52.864Z,63.64
2016-02-05T11:53:51.883Z,62.69
2016-02-05T11:54:52.463Z,62.59
2016-02-05T11:55:51.966Z,62.12
2016-02-05T11:56:51.922Z,61.17
2016-02-05T11:57:52.238Z,61.83
2016-02-05T11:58:51.944Z,62.4
2016-02-05T11:59:51.931Z,62.69
2016-02-05T12:00:52.042Z,62.69
2016-02-05T12:01:52.045Z,63.35
2016-02-05T12:02:51.956Z,62.02
2016-02-05T12:03:52.271Z,62.12
2016-02-05T12:04:52.464Z,62.12
2016-02-05T12:05:51.950Z,62.21
2016-02-05T12:06:52.172Z,62.12
2016-02-05T12:07:51.956Z,61.74
2016-02-05T12:08:51.397Z,60.88
2016-02-05T12:09:52.090Z,61.07
2016-02-05T12:10:51.859Z,61.45
2016-02-05T12:11:51.970Z,61.55
2016-02-05T12:12:52.098Z,61.74
2016-02-05T12:13:51.851Z,61.26
2016-02-05T12:14:51.869Z,60.31
2016-02-05T12:15:51.997Z,60.31
2016-02-05T12:16:51.874Z,60.31
2016-02-05T12:17:51.972Z,60.13
2016-02-05T12:18:52.069Z,59.81
2016-02-05T12:19:51.994Z,61.04
2016-02-05T12:20:51.918Z,60.79
2016-02-05T12:21:51.952Z,60.98
2016-02-05T12:22:51.894Z,60.1
2016-02-05T12:23:51.896Z,60
2016-02-05T12:24:52.119Z,60.76
2016-02-05T12:25:51.965Z,60.88
2016-02-05T12:26:52.016Z,60.5
2016-02-05T12:27:51.908Z,60.98
2016-02-05T12:28:51.802Z,60.03
2016-02-05T12:29:51.884Z,60.69
2016-02-05T12:30:51.873Z,60.41
2016-02-05T12:31:51.875Z,60.69
2016-02-05T12:32:51.878Z,60.88
2016-02-05T12:33:51.868Z,60.6
2016-02-05T12:34:51.841Z,61.26
2016-02-05T12:35:51.905Z,61.17
2016-02-05T12:36:51.861Z,60.41
2016-02-05T12:37:52.008Z,60.03
2016-02-05T12:38:51.808Z,60.13
2016-02-05T12:39:51.794Z,60.88
2016-02-05T12:40:51.797Z,59.84
2016-02-05T12:41:51.800Z,60.03
2016-02-05T12:42:51.804Z,59.65
2016-02-05T12:43:51.806Z,58.61
2016-02-05T12:44:52.059Z,58.8
2016-02-05T12:45:51.905Z,58.51
2016-02-05T12:46:51.799Z,58.89
2016-02-05T12:47:51.817Z,58.89
2016-02-05T12:48:51.867Z,59.08
2016-02-05T12:49:51.791Z,58.98
2016-02-05T12:50:51.783Z,59.17
2016-02-05T12:51:51.785Z,59.08
2016-02-05T12:52:51.788Z,59.08
2016-02-05T12:53:51.931Z,58.98
2016-02-05T12:54:51.855Z,59.74
2016-02-05T12:55:51.799Z,59.46